createdAt,value
2019-04-23T00:00:15.859Z,1010.45
2019-04-23T00:01:07.906Z,1010.42
2019-04-23T00:01:55.567Z,1010.35
2019-04-23T00:02:58.870Z,1010.38
2019-04-23T00:03:51.870Z,1010.38
2019-04-23T00:04:53.051Z,1010.35
2019-04-23T00:09:23.876Z,1010.32
2019-04-23T00:10:03.461Z,1010.38
2019-04-23T00:10:58.456Z,1010.37
2019-04-23T00:11:59.852Z,1010.32
2019-04-23T00:12:53.049Z,1010.34
2019-04-23T00:14:03.567Z,1010.32
2019-04-23T00:15:04.833Z,1010.33
2019-04-23T00:16:04.996Z,1010.32
2019-04-23T00:16:57.815Z,1010.26
2019-04-23T00:17:57.240Z,1010.24
2019-04-23T00:18:49.351Z,1010.26
2019-04-23T00:20:03.384Z,1010.26
2019-04-23T00:20:57.184Z,1010.24
2019-04-23T00:22:00.317Z,1010.21
2019-04-23T00:23:02.107Z,1010.19
2019-04-23T00:24:10.334Z,1010.18
2019-04-23T00:26:16.269Z,1010.17
2019-04-23T00:27:06.224Z,1010.20
2019-04-23T00:28:01.707Z,1010.20
2019-04-23T00:29:08.403Z,1010.17
2019-04-23T00:30:10.336Z,1010.16
2019-04-23T00:32:05.070Z,1010.17
2019-04-23T00:33:04.023Z,1010.11
2019-04-23T00:33:56.648Z,1010.14
2019-04-23T00:35:02.514Z,1010.09
2019-04-23T00:35:55.057Z,1010.11
2019-04-23T00:37:08.374Z,1010.14
2019-04-23T00:38:05.897Z,1010.11
2019-04-23T00:38:55.817Z,1010.12
2019-04-23T00:39:56.766Z,1010.11
2019-04-23T00:40:58.218Z,1010.10
2019-04-23T00:42:05.045Z,1010.05
2019-04-23T00:43:02.006Z,1010.04
2019-04-23T00:44:17.220Z,1010.06
2019-04-23T00:44:58.682Z,1010.09
2019-04-23T00:45:56.428Z,1010.04
2019-04-23T00:46:54.441Z,1010.02
2019-04-23T00:47:54.750Z,1010.02
2019-04-23T00:50:07.719Z,1010.02
2019-04-23T00:50:54.317Z,1010.00
2019-04-23T00:51:58.485Z,1010.01
2019-04-23T00:52:57.612Z,1010.05
2019-04-23T00:54:02.231Z,1009.95
2019-04-23T00:55:09.956Z,1009.96
2019-04-23T00:57:00.683Z,1009.96
2019-04-23T00:58:08.481Z,1009.88
2019-04-23T00:59:03.984Z,1009.99
2019-04-23T01:00:23.812Z,1009.94
2019-04-23T01:01:00.360Z,1009.97
2019-04-23T01:03:06.092Z,1009.94
2019-04-23T01:04:02.804Z,1009.98
2019-04-23T01:05:03.639Z,1009.98
2019-04-23T01:06:02.626Z,1009.90
2019-04-23T01:06:58.038Z,1009.96
2019-04-23T01:08:01.838Z,1009.92
2019-04-23T01:09:15.277Z,1009.97
2019-04-23T01:09:59.704Z,1009.87
2019-04-23T01:12:02.747Z,1009.93
2019-04-23T01:12:59.727Z,1009.94
2019-04-23T01:14:03.875Z,1009.90
2019-04-23T01:15:06.911Z,1009.92
2019-04-23T01:16:04.493Z,1009.90
2019-04-23T01:17:02.205Z,1009.94
2019-04-23T01:18:05.148Z,1009.93
2019-04-23T01:18:58.226Z,1009.88
2019-04-23T01:20:17.623Z,1009.87
2019-04-23T01:20:54.787Z,1009.85
2019-04-23T01:21:39.109Z,1009.84
2019-04-23T01:22:40.198Z,1009.80
2019-04-23T01:23:44.358Z,1009.82
2019-04-23T01:24:40.831Z,1009.79
2019-04-23T01:25:51.684Z,1009.78
2019-04-23T01:27:18.485Z,1009.82
2019-04-23T01:28:02.489Z,1009.79
2019-04-23T01:29:05.257Z,1009.73
2019-04-23T01:31:09.217Z,1009.71
2019-04-23T01:32:08.627Z,1009.71
2019-04-23T01:33:03.896Z,1009.71
2019-04-23T01:34:04.634Z,1009.68
2019-04-23T01:35:15.228Z,1009.71
2019-04-23T01:36:20.613Z,1009.70
2019-04-23T01:37:03.926Z,1009.69
2019-04-23T01:38:06.084Z,1009.68
2019-04-23T01:39:06.494Z,1009.66
2019-04-23T01:40:03.757Z,1009.65
2019-04-23T01:41:09.531Z,1009.68
2019-04-23T01:42:16.572Z,1009.60
2019-04-23T01:43:02.960Z,1009.57
2019-04-23T01:43:55.247Z,1009.58
2019-04-23T01:45:07.319Z,1009.60
2019-04-23T01:46:09.539Z,1009.57
2019-04-23T01:47:07.721Z,1009.53
2019-04-23T01:48:00.191Z,1009.58
2019-04-23T01:49:05.917Z,1009.54
2019-04-23T01:50:20.187Z,1009.59
2019-04-23T01:52:12.843Z,1009.52
2019-04-23T01:53:14.595Z,1009.51
2019-04-23T01:54:02.927Z,1009.47
2019-04-23T01:55:11.736Z,1009.50
2019-04-23T01:56:04.823Z,1009.47
2019-04-23T01:57:11.136Z,1009.45
2019-04-23T01:58:30.194Z,1009.45
2019-04-23T01:59:07.893Z,1009.42
2019-04-23T02:00:14.108Z,1009.43
2019-04-23T02:01:08.595Z,1009.44
2019-04-23T02:02:08.339Z,1009.40
2019-04-23T02:03:09.069Z,1009.44
2019-04-23T02:04:10.013Z,1009.41
2019-04-23T02:05:09.034Z,1009.44
2019-04-23T02:06:20.428Z,1009.42
2019-04-23T02:07:06.212Z,1009.34
2019-04-23T02:09:06.561Z,1009.35
2019-04-23T02:10:14.619Z,1009.36
2019-04-23T02:12:07.656Z,1009.31
2019-04-23T02:13:11.127Z,1009.29
2019-04-23T02:14:21.240Z,1009.28
2019-04-23T02:15:13.814Z,1009.29
2019-04-23T02:16:05.097Z,1009.30
2019-04-23T02:17:13.652Z,1009.32
2019-04-23T02:19:14.697Z,1009.27
2019-04-23T02:20:25.473Z,1009.23
2019-04-23T02:21:08.563Z,1009.21
2019-04-23T02:22:06.564Z,1009.22
2019-04-23T02:23:11.664Z,1009.20
2019-04-23T02:24:15.892Z,1009.23
2019-04-23T02:25:16.246Z,1009.21
2019-04-23T02:26:02.712Z,1009.15
2019-04-23T02:27:12.199Z,1009.22
2019-04-23T02:30:31.106Z,1009.17
2019-04-23T02:34:21.691Z,1009.21
2019-04-23T02:35:17.302Z,1009.24
2019-04-23T02:36:23.886Z,1009.20
2019-04-23T02:39:29.317Z,1009.17
2019-04-23T02:44:16.627Z,1009.19
2019-04-23T02:45:16.959Z,1009.23
2019-04-23T02:46:09.060Z,1009.20
2019-04-23T02:47:18.614Z,1009.17
2019-04-23T02:48:19.056Z,1009.20
2019-04-23T02:49:18.202Z,1009.20
2019-04-23T02:50:31.140Z,1009.20
2019-04-23T02:51:18.090Z,1009.17
2019-04-23T02:52:18.464Z,1009.14
2019-04-23T02:53:36.049Z,1009.20
2019-04-23T02:54:27.169Z,1009.18
2019-04-23T02:55:18.081Z,1009.14
2019-04-23T02:56:24.242Z,1009.16
2019-04-23T02:58:21.581Z,1009.16
2019-04-23T02:58:21.782Z,1009.17
2019-04-23T02:59:21.858Z,1009.12
2019-04-23T03:02:24.393Z,1009.12
2019-04-23T03:03:14.031Z,1009.08
2019-04-23T03:04:19.816Z,1009.07
2019-04-23T03:05:24.951Z,1009.05
2019-04-23T03:06:18.906Z,1009.02
2019-04-23T03:08:17.077Z,1008.97
2019-04-23T03:09:27.863Z,1008.95
2019-04-23T03:10:18.471Z,1008.99
2019-04-23T03:12:35.019Z,1008.93
2019-04-23T03:15:32.086Z,1008.95
2019-04-23T03:17:13.302Z,1008.97
2019-04-23T03:18:40.129Z,1008.91
2019-04-23T03:20:22.198Z,1008.83
2019-04-23T03:21:31.326Z,1008.88
2019-04-23T03:22:06.057Z,1008.88
2019-04-23T03:24:25.128Z,1008.88
2019-04-23T03:25:20.533Z,1008.93
2019-04-23T03:26:25.201Z,1008.88
2019-04-23T03:28:21.254Z,1008.85
2019-04-23T03:29:19.642Z,1008.86
2019-04-23T03:30:30.100Z,1008.86
2019-04-23T03:32:48.352Z,1008.86
2019-04-23T03:34:13.629Z,1008.84
2019-04-23T03:35:16.034Z,1008.77
2019-04-23T03:38:36.326Z,1008.83
2019-04-23T03:39:05.822Z,1008.82
2019-04-23T03:40:13.870Z,1008.79
2019-04-23T03:41:25.788Z,1008.81
2019-04-23T03:43:14.563Z,1008.79
2019-04-23T03:44:12.599Z,1008.75
2019-04-23T03:46:24.152Z,1008.80
2019-04-23T03:47:18.870Z,1008.71
2019-04-23T03:49:15.043Z,1008.78
2019-04-23T03:50:25.873Z,1008.74
2019-04-23T03:51:18.644Z,1008.70
2019-04-23T03:52:21.318Z,1008.70
2019-04-23T03:53:25.952Z,1008.76
2019-04-23T03:55:19.063Z,1008.73
2019-04-23T03:57:22.339Z,1008.79
2019-04-23T03:58:19.183Z,1008.79
2019-04-23T03:59:20.267Z,1008.74
2019-04-23T04:00:31.099Z,1008.80
2019-04-23T04:01:26.701Z,1008.77
2019-04-23T04:04:31.696Z,1008.79
2019-04-23T04:05:22.273Z,1008.77
2019-04-23T04:07:43.827Z,1008.77
2019-04-23T04:08:18.423Z,1008.76
2019-04-23T04:09:26.043Z,1008.76
2019-04-23T04:11:14.234Z,1008.69
2019-04-23T04:12:21.735Z,1008.73
2019-04-23T04:13:22.182Z,1008.74
2019-04-23T04:15:33.278Z,1008.76
2019-04-23T04:17:28.243Z,1008.70
2019-04-23T04:19:29.419Z,1008.74
2019-04-23T04:20:28.962Z,1008.73
2019-04-23T04:23:33.067Z,1008.71
2019-04-23T04:24:27.498Z,1008.75
2019-04-23T04:25:37.155Z,1008.72
2019-04-23T04:26:23.131Z,1008.69
2019-04-23T04:27:26.477Z,1008.69
2019-04-23T04:28:17.606Z,1008.70
2019-04-23T04:29:32.493Z,1008.71
2019-04-23T04:30:23.676Z,1008.64
2019-04-23T04:31:35.081Z,1008.64
2019-04-23T04:32:12.017Z,1008.65
2019-04-23T04:33:30.005Z,1008.64
2019-04-23T04:37:37.782Z,1008.66
2019-04-23T04:38:38.359Z,1008.67
2019-04-23T04:39:19.682Z,1008.62
2019-04-23T04:42:14.673Z,1008.59
2019-04-23T04:45:30.401Z,1008.62
2019-04-23T04:47:25.747Z,1008.58
2019-04-23T04:48:18.118Z,1008.54
2019-04-23T04:50:31.349Z,1008.59
2019-04-23T04:51:37.919Z,1008.56
2019-04-23T04:52:44.719Z,1008.56
2019-04-23T04:53:43.811Z,1008.56
2019-04-23T04:54:17.845Z,1008.54
2019-04-23T04:56:20.910Z,1008.53
2019-04-23T04:58:27.648Z,1008.52
2019-04-23T04:59:18.172Z,1008.49
2019-04-23T05:00:20.248Z,1008.52
2019-04-23T05:02:30.393Z,1008.46
2019-04-23T05:03:25.863Z,1008.45
2019-04-23T05:04:26.928Z,1008.46
2019-04-23T05:08:26.262Z,1008.48
2019-04-23T05:09:43.952Z,1008.49
2019-04-23T05:12:19.081Z,1008.44
2019-04-23T05:14:13.426Z,1008.47
2019-04-23T05:15:16.531Z,1008.49
2019-04-23T05:16:29.471Z,1008.53
2019-04-23T05:17:24.018Z,1008.49
2019-04-23T05:21:24.680Z,1008.47
2019-04-23T05:22:17.093Z,1008.44
2019-04-23T05:23:19.405Z,1008.50
2019-04-23T05:24:16.295Z,1008.41
2019-04-23T05:25:12.596Z,1008.39
2019-04-23T05:26:17.443Z,1008.49
2019-04-23T05:27:16.096Z,1008.42
2019-04-23T05:28:16.930Z,1008.38
2019-04-23T05:29:11.955Z,1008.46
2019-04-23T05:30:15.449Z,1008.47
2019-04-23T05:31:23.291Z,1008.39
2019-04-23T05:32:14.745Z,1008.42
2019-04-23T05:33:17.337Z,1008.41
2019-04-23T05:34:12.888Z,1008.37
2019-04-23T05:35:27.814Z,1008.34
2019-04-23T05:36:26.302Z,1008.42
2019-04-23T05:37:17.048Z,1008.36
2019-04-23T05:40:25.473Z,1008.36
2019-04-23T05:41:16.988Z,1008.35
2019-04-23T05:42:10.629Z,1008.35
2019-04-23T05:43:12.651Z,1008.31
2019-04-23T05:44:15.831Z,1008.32
2019-04-23T05:45:19.352Z,1008.31
2019-04-23T05:46:23.694Z,1008.27
2019-04-23T05:49:12.765Z,1008.26
2019-04-23T05:50:21.599Z,1008.29
2019-04-23T05:52:16.955Z,1008.25
2019-04-23T05:53:21.590Z,1008.29
2019-04-23T05:55:13.677Z,1008.26
2019-04-23T05:56:13.303Z,1008.25
2019-04-23T05:57:32.865Z,1008.18
2019-04-23T05:58:22.145Z,1008.19
2019-04-23T06:00:16.116Z,1008.27
2019-04-23T06:01:39.364Z,1008.23
2019-04-23T06:02:19.792Z,1008.16
2019-04-23T06:03:19.524Z,1008.19
2019-04-23T06:04:19.175Z,1008.20
2019-04-23T06:05:19.741Z,1008.19
2019-04-23T06:06:20.937Z,1008.22
2019-04-23T06:07:28.685Z,1008.09
2019-04-23T06:08:17.843Z,1008.14
2019-04-23T06:10:11.309Z,1008.10
2019-04-23T06:11:26.133Z,1008.12
2019-04-23T06:12:15.387Z,1008.10
2019-04-23T06:13:19.465Z,1008.09
2019-04-23T06:15:11.480Z,1008.07
2019-04-23T06:16:22.333Z,1008.11
2019-04-23T06:17:15.272Z,1008.08
2019-04-23T06:18:22.521Z,1008.07
2019-04-23T06:20:18.210Z,1008.03
2019-04-23T06:21:17.258Z,1008.03
2019-04-23T06:22:22.376Z,1008.07
2019-04-23T06:23:25.246Z,1008.05
2019-04-23T06:25:33.851Z,1007.96
2019-04-23T06:26:24.358Z,1007.94
2019-04-23T06:27:19.314Z,1007.93
2019-04-23T06:28:22.426Z,1007.94
2019-04-23T06:29:21.007Z,1007.90
2019-04-23T06:30:19.308Z,1007.89
2019-04-23T06:31:24.789Z,1007.87
2019-04-23T06:32:14.366Z,1007.87
2019-04-23T06:33:21.120Z,1007.85
2019-04-23T06:35:11.854Z,1007.77
2019-04-23T06:36:23.998Z,1007.83
2019-04-23T06:37:18.349Z,1007.79
2019-04-23T06:38:40.426Z,1007.80
2019-04-23T06:39:26.407Z,1007.79
2019-04-23T06:40:13.928Z,1007.81
2019-04-23T06:41:15.659Z,1007.77
2019-04-23T06:42:11.346Z,1007.77
2019-04-23T06:43:22.587Z,1007.84
2019-04-23T06:44:19.185Z,1007.82
2019-04-23T06:45:14.467Z,1007.78
2019-04-23T06:46:24.284Z,1007.77
2019-04-23T06:47:16.764Z,1007.68
2019-04-23T06:49:20.375Z,1007.71
2019-04-23T06:50:17.699Z,1007.77
2019-04-23T06:51:20.135Z,1007.76
2019-04-23T06:52:18.725Z,1007.78
2019-04-23T06:53:12.616Z,1007.79
2019-04-23T06:54:18.794Z,1007.76
2019-04-23T06:55:18.573Z,1007.86
2019-04-23T06:56:19.157Z,1007.77
2019-04-23T06:58:19.497Z,1007.74
2019-04-23T06:59:17.429Z,1007.75
2019-04-23T07:00:13.272Z,1007.75
2019-04-23T07:01:11.454Z,1007.80
2019-04-23T07:04:17.343Z,1007.83
2019-04-23T07:05:16.170Z,1007.76
2019-04-23T07:06:23.577Z,1007.77
2019-04-23T07:07:36.498Z,1007.81
2019-04-23T07:08:22.525Z,1007.77
2019-04-23T07:09:18.111Z,1007.79
2019-04-23T07:10:18.447Z,1007.72
2019-04-23T07:12:15.048Z,1007.72
2019-04-23T07:13:20.635Z,1007.74
2019-04-23T07:14:21.906Z,1007.69
2019-04-23T07:15:32.211Z,1007.56
2019-04-23T07:17:16.964Z,1007.68
2019-04-23T07:18:19.028Z,1007.60
2019-04-23T07:21:17.798Z,1007.56
2019-04-23T07:22:20.933Z,1007.55
2019-04-23T07:23:24.542Z,1007.58
2019-04-23T07:24:28.777Z,1007.52
2019-04-23T07:25:17.304Z,1007.52
2019-04-23T07:27:19.090Z,1007.58
2019-04-23T07:28:17.997Z,1007.58
2019-04-23T07:29:18.909Z,1007.47
2019-04-23T07:30:32.825Z,1007.54
2019-04-23T07:31:24.374Z,1007.53
2019-04-23T07:32:17.644Z,1007.52
2019-04-23T07:33:18.880Z,1007.46
2019-04-23T07:34:15.678Z,1007.58
2019-04-23T07:36:23.484Z,1007.43
2019-04-23T07:37:20.285Z,1007.45
2019-04-23T07:38:28.623Z,1007.57
2019-04-23T07:39:38.815Z,1007.47
2019-04-23T07:41:23.723Z,1007.51
2019-04-23T07:43:14.461Z,1007.55
2019-04-23T07:44:46.912Z,1007.48
2019-04-23T07:46:30.719Z,1007.53
2019-04-23T07:48:14.926Z,1007.44
2019-04-23T07:49:18.083Z,1007.44
2019-04-23T07:51:19.504Z,1007.35
2019-04-23T07:52:27.652Z,1007.40
2019-04-23T07:53:17.170Z,1007.43
2019-04-23T07:54:22.765Z,1007.40
2019-04-23T07:55:28.405Z,1007.38
2019-04-23T07:58:23.433Z,1007.36
2019-04-23T07:59:25.357Z,1007.50
2019-04-23T08:00:18.228Z,1007.45
2019-04-23T08:01:23.044Z,1007.39
2019-04-23T08:02:26.177Z,1007.42
2019-04-23T08:04:16.673Z,1007.37
2019-04-23T08:05:22.853Z,1007.37
2019-04-23T08:06:30.895Z,1007.33
2019-04-23T08:07:19.914Z,1007.29
2019-04-23T08:08:30.453Z,1007.28
2019-04-23T08:09:22.347Z,1007.23
2019-04-23T08:10:22.806Z,1007.42
2019-04-23T08:13:21.550Z,1007.26
2019-04-23T08:14:17.053Z,1007.23
2019-04-23T08:15:23.651Z,1007.24
2019-04-23T08:16:32.981Z,1007.28
2019-04-23T08:17:16.107Z,1007.30
2019-04-23T08:18:25.070Z,1007.18
2019-04-23T08:19:25.136Z,1007.22
2019-04-23T08:20:24.702Z,1007.20
2019-04-23T08:22:28.291Z,1007.23
2019-04-23T08:23:16.498Z,1007.21
2019-04-23T08:24:17.131Z,1007.16
2019-04-23T08:25:19.216Z,1007.17
2019-04-23T08:26:28.054Z,1007.10
2019-04-23T08:27:19.662Z,1007.01
2019-04-23T08:28:29.049Z,1007.17
2019-04-23T08:29:28.059Z,1007.09
2019-04-23T08:30:17.359Z,1007.00
2019-04-23T08:31:22.020Z,1007.08
2019-04-23T08:32:21.309Z,1007.04
2019-04-23T08:33:17.439Z,1006.99
2019-04-23T08:35:17.679Z,1006.96
2019-04-23T08:36:23.710Z,1006.94
2019-04-23T08:37:25.306Z,1006.84
2019-04-23T08:39:18.283Z,1006.89
2019-04-23T08:40:20.674Z,1006.90
2019-04-23T08:41:28.423Z,1006.83
2019-04-23T08:43:32.962Z,1006.83
2019-04-23T08:46:24.768Z,1006.75
2019-04-23T08:48:27.788Z,1006.90
2019-04-23T08:50:21.658Z,1006.71
2019-04-23T08:52:18.693Z,1006.66
2019-04-23T08:54:26.589Z,1006.71
2019-04-23T08:55:21.060Z,1006.79
2019-04-23T08:56:24.085Z,1006.71
2019-04-23T08:57:22.702Z,1006.76
2019-04-23T08:58:25.137Z,1006.74
2019-04-23T08:59:33.142Z,1006.74
2019-04-23T09:00:23.109Z,1006.70
2019-04-23T09:01:17.295Z,1006.76
2019-04-23T09:02:30.568Z,1006.75
2019-04-23T09:04:26.979Z,1006.61
2019-04-23T09:05:23.461Z,1006.73
2019-04-23T09:06:20.298Z,1006.65
2019-04-23T09:07:22.112Z,1006.67
2019-04-23T09:08:25.338Z,1006.56
2019-04-23T09:09:29.152Z,1006.73
2019-04-23T09:10:29.782Z,1006.65
2019-04-23T09:11:40.385Z,1006.57
2019-04-23T09:12:24.148Z,1006.59
2019-04-23T09:14:08.833Z,1006.48
2019-04-23T09:15:25.512Z,1006.53
2019-04-23T09:16:32.610Z,1006.50
2019-04-23T09:18:21.329Z,1006.51
2019-04-23T09:19:25.820Z,1006.51
2019-04-23T09:21:23.945Z,1006.51
2019-04-23T09:23:32.942Z,1006.42
2019-04-23T09:24:22.349Z,1006.47
2019-04-23T09:25:28.372Z,1006.42
2019-04-23T09:26:11.036Z,1006.47
2019-04-23T09:28:28.586Z,1006.42
2019-04-23T09:29:36.609Z,1006.35
2019-04-23T09:30:25.633Z,1006.40
2019-04-23T09:31:38.209Z,1006.32
2019-04-23T09:33:25.859Z,1006.36
2019-04-23T09:34:18.890Z,1006.37
2019-04-23T09:36:21.889Z,1006.30
2019-04-23T09:37:26.484Z,1006.33
2019-04-23T09:38:34.554Z,1006.27
2019-04-23T09:39:20.435Z,1006.30
2019-04-23T09:41:02.904Z,1006.27
2019-04-23T09:41:22.309Z,1006.26
2019-04-23T09:42:34.398Z,1006.21
2019-04-23T09:43:22.722Z,1006.25
2019-04-23T09:44:42.627Z,1006.08
2019-04-23T09:45:22.864Z,1006.19
2019-04-23T09:46:25.639Z,1006.10
2019-04-23T09:47:26.434Z,1006.16
2019-04-23T09:48:18.124Z,1006.12
2019-04-23T09:49:26.364Z,1006.16
2019-04-23T09:50:24.019Z,1006.09
2019-04-23T09:51:24.336Z,1006.15
2019-04-23T09:52:27.087Z,1006.04
2019-04-23T09:53:33.817Z,1006.06
2019-04-23T09:54:27.182Z,1005.98
2019-04-23T09:55:30.016Z,1005.98
2019-04-23T09:56:22.486Z,1005.88
2019-04-23T09:57:20.442Z,1005.87
2019-04-23T09:58:16.731Z,1005.96
2019-04-23T10:00:31.173Z,1005.98
2019-04-23T10:02:20.125Z,1005.94
2019-04-23T10:03:09.108Z,1006.00
2019-04-23T10:04:08.735Z,1005.91
2019-04-23T10:05:11.229Z,1005.91
2019-04-23T10:06:04.188Z,1005.83
2019-04-23T10:07:11.567Z,1005.96
2019-04-23T10:08:05.036Z,1005.92
2019-04-23T10:08:58.624Z,1005.87
2019-04-23T10:09:57.352Z,1005.71
2019-04-23T10:10:57.459Z,1005.86
2019-04-23T10:11:56.181Z,1005.75
2019-04-23T10:12:58.003Z,1005.73
2019-04-23T10:13:56.608Z,1005.57
2019-04-23T10:15:05.660Z,1005.73
2019-04-23T10:15:58.050Z,1005.69
2019-04-23T10:16:57.933Z,1005.74
2019-04-23T10:17:56.436Z,1005.78
2019-04-23T10:18:57.367Z,1005.55
2019-04-23T10:19:56.470Z,1005.55
2019-04-23T10:20:56.587Z,1005.62
2019-04-23T10:21:57.500Z,1005.59
2019-04-23T10:22:56.854Z,1005.54
2019-04-23T10:23:57.110Z,1005.60
2019-04-23T10:24:57.182Z,1005.53
2019-04-23T10:25:58.171Z,1005.48
2019-04-23T10:26:57.805Z,1005.52
2019-04-23T10:28:01.141Z,1005.44
2019-04-23T10:28:58.195Z,1005.46
2019-04-23T10:29:56.836Z,1005.43
2019-04-23T10:30:56.872Z,1005.30
2019-04-23T10:31:57.767Z,1005.39
2019-04-23T10:32:57.871Z,1005.43
2019-04-23T10:33:57.962Z,1005.42
2019-04-23T10:35:13.504Z,1005.43
2019-04-23T10:36:04.366Z,1005.33
2019-04-23T10:36:57.639Z,1005.42
2019-04-23T10:38:04.156Z,1005.49
2019-04-23T10:39:03.559Z,1005.34
2019-04-23T10:40:00.894Z,1005.33
2019-04-23T10:40:58.087Z,1005.37
2019-04-23T10:41:59.628Z,1005.31
2019-04-23T10:42:59.718Z,1005.35
2019-04-23T10:43:58.685Z,1005.36
2019-04-23T10:45:10.959Z,1005.29
2019-04-23T10:46:16.897Z,1005.27
2019-04-23T10:47:23.765Z,1005.17
2019-04-23T10:48:46.965Z,1005.20
2019-04-23T10:49:42.780Z,1005.12
2019-04-23T10:50:31.817Z,1005.16
2019-04-23T10:51:30.620Z,1005.15
2019-04-23T10:52:36.396Z,1005.14
2019-04-23T10:55:38.512Z,1005.22
2019-04-23T10:56:37.708Z,1005.12
2019-04-23T10:57:26.482Z,1005.18
2019-04-23T10:59:28.774Z,1005.14
2019-04-23T11:00:23.951Z,1005.10
2019-04-23T11:01:27.988Z,1005.01
2019-04-23T11:03:41.944Z,1005.07
2019-04-23T11:04:39.848Z,1004.97
2019-04-23T11:05:35.969Z,1005.06
2019-04-23T11:06:30.799Z,1005.07
2019-04-23T11:07:38.812Z,1005.03
2019-04-23T11:08:24.044Z,1005.07
2019-04-23T11:09:53.052Z,1005.04
2019-04-23T11:10:25.931Z,1004.99
2019-04-23T11:11:27.862Z,1005.03
2019-04-23T11:12:37.055Z,1005.13
2019-04-23T11:13:32.046Z,1005.10
2019-04-23T11:14:31.033Z,1005.05
2019-04-23T11:15:33.522Z,1005.09
2019-04-23T11:17:36.324Z,1005.05
2019-04-23T11:18:38.303Z,1005.01
2019-04-23T11:19:32.291Z,1005.01
2019-04-23T11:21:38.466Z,1005.04
2019-04-23T11:23:29.537Z,1004.98
2019-04-23T11:24:38.048Z,1004.97
2019-04-23T11:25:31.801Z,1005.05
2019-04-23T11:26:38.798Z,1004.96
2019-04-23T11:27:31.266Z,1005.02
2019-04-23T11:28:26.067Z,1004.91
2019-04-23T11:29:35.693Z,1004.88
2019-04-23T11:30:32.526Z,1004.99
2019-04-23T11:31:48.722Z,1004.90
2019-04-23T11:32:48.346Z,1004.89
2019-04-23T11:33:34.111Z,1004.95
2019-04-23T11:34:51.630Z,1004.99
2019-04-23T11:36:47.914Z,1004.94
2019-04-23T11:37:41.156Z,1004.85
2019-04-23T11:38:50.786Z,1004.77
2019-04-23T11:39:32.454Z,1004.91
2019-04-23T11:41:32.311Z,1004.78
2019-04-23T11:42:34.788Z,1004.74
2019-04-23T11:43:29.190Z,1004.81
2019-04-23T11:44:34.317Z,1004.85
2019-04-23T11:46:46.101Z,1004.85
2019-04-23T11:49:51.114Z,1004.73
2019-04-23T11:52:36.642Z,1004.64
2019-04-23T11:53:34.082Z,1004.72
2019-04-23T11:54:30.926Z,1004.70
2019-04-23T11:55:39.183Z,1004.57
2019-04-23T11:56:53.893Z,1004.65
2019-04-23T11:57:52.560Z,1004.57
2019-04-23T11:58:34.079Z,1004.69
2019-04-23T12:00:38.968Z,1004.61
2019-04-23T12:01:42.265Z,1004.55
2019-04-23T12:02:22.042Z,1004.48
2019-04-23T12:03:29.756Z,1004.44
2019-04-23T12:05:35.444Z,1004.54
2019-04-23T12:06:30.144Z,1004.55
2019-04-23T12:07:32.659Z,1004.64
2019-04-23T12:08:37.827Z,1004.41
2019-04-23T12:09:43.045Z,1004.55
2019-04-23T12:10:43.006Z,1004.48
2019-04-23T12:11:52.709Z,1004.60
2019-04-23T12:12:33.247Z,1004.51
2019-04-23T12:13:35.912Z,1004.53
2019-04-23T12:15:32.123Z,1004.48
2019-04-23T12:16:40.695Z,1004.47
2019-04-23T12:17:33.167Z,1004.46
2019-04-23T12:18:35.390Z,1004.65
2019-04-23T12:20:33.757Z,1004.50
2019-04-23T12:21:37.984Z,1004.53
2019-04-23T12:22:29.601Z,1004.47
2019-04-23T12:23:40.612Z,1004.45
2019-04-23T12:25:04.342Z,1004.62
2019-04-23T12:26:39.025Z,1004.57
2019-04-23T12:27:27.592Z,1004.57
2019-04-23T12:28:30.131Z,1004.49
2019-04-23T12:29:33.601Z,1004.35
2019-04-23T12:30:33.625Z,1004.46
2019-04-23T12:31:34.274Z,1004.58
2019-04-23T12:33:36.483Z,1004.58
2019-04-23T12:34:41.740Z,1004.56
2019-04-23T12:35:28.977Z,1004.43
2019-04-23T12:36:36.968Z,1004.49
2019-04-23T12:37:34.665Z,1004.55
2019-04-23T12:38:28.375Z,1004.62
2019-04-23T12:39:36.246Z,1004.55
2019-04-23T12:41:29.933Z,1004.33
2019-04-23T12:42:48.806Z,1004.62
2019-04-23T12:43:25.649Z,1004.51
2019-04-23T12:44:31.314Z,1004.57
2019-04-23T12:46:38.452Z,1004.48
2019-04-23T12:47:46.442Z,1004.40
2019-04-23T12:48:45.025Z,1004.39
2019-04-23T12:50:44.889Z,1004.46
2019-04-23T12:51:43.371Z,1004.41
2019-04-23T12:52:34.173Z,1004.36
2019-04-23T12:54:41.057Z,1004.33
2019-04-23T12:56:43.948Z,1004.37
2019-04-23T12:57:35.757Z,1004.53
2019-04-23T12:58:45.184Z,1004.50
2019-04-23T12:59:30.524Z,1004.46
2019-04-23T13:00:35.113Z,1004.41
2019-04-23T13:01:38.135Z,1004.55
2019-04-23T13:02:41.181Z,1004.54
2019-04-23T13:03:29.885Z,1004.51
2019-04-23T13:04:32.224Z,1004.44
2019-04-23T13:06:27.111Z,1004.50
2019-04-23T13:07:47.182Z,1004.51
2019-04-23T13:09:44.347Z,1004.43
2019-04-23T13:10:32.541Z,1004.41
2019-04-23T13:14:41.557Z,1004.33
2019-04-23T13:15:29.317Z,1004.26
2019-04-23T13:16:37.726Z,1004.22
2019-04-23T13:17:47.428Z,1004.21
2019-04-23T13:18:34.093Z,1004.29
2019-04-23T13:19:40.119Z,1004.23
2019-04-23T13:21:53.579Z,1004.25
2019-04-23T13:23:41.119Z,1004.13
2019-04-23T13:24:33.137Z,1004.19
2019-04-23T13:25:34.819Z,1004.15
2019-04-23T13:26:27.968Z,1004.16
2019-04-23T13:27:38.597Z,1004.13
2019-04-23T13:28:34.676Z,1004.18
2019-04-23T13:29:38.070Z,1004.19
2019-04-23T13:31:30.029Z,1004.18
2019-04-23T13:32:38.922Z,1004.20
2019-04-23T13:34:42.900Z,1004.09
2019-04-23T13:35:54.955Z,1004.03
2019-04-23T13:37:36.611Z,1004.07
2019-04-23T13:38:38.510Z,1004.02
2019-04-23T13:39:33.234Z,1004.02
2019-04-23T13:42:40.371Z,1003.94
2019-04-23T13:43:43.753Z,1004.00
2019-04-23T13:44:39.472Z,1004.01
2019-04-23T13:45:53.580Z,1004.10
2019-04-23T13:46:28.879Z,1003.94
2019-04-23T13:47:53.444Z,1003.94
2019-04-23T13:48:24.351Z,1003.92
2019-04-23T13:49:36.770Z,1003.88
2019-04-23T13:50:43.301Z,1003.89
2019-04-23T13:51:35.837Z,1003.89
2019-04-23T13:53:05.412Z,1003.90
2019-04-23T13:53:42.596Z,1003.90
2019-04-23T13:54:54.868Z,1003.79
2019-04-23T13:55:32.104Z,1003.85
2019-04-23T13:57:59.198Z,1003.79
2019-04-23T13:58:36.323Z,1003.78
2019-04-23T13:59:39.455Z,1003.75
2019-04-23T14:00:52.592Z,1003.69
2019-04-23T14:01:34.735Z,1003.79
2019-04-23T14:02:37.247Z,1003.75
2019-04-23T14:03:50.506Z,1003.76
2019-04-23T14:04:41.658Z,1003.66
2019-04-23T14:05:33.118Z,1003.77
2019-04-23T14:06:37.322Z,1003.81
2019-04-23T14:07:38.568Z,1003.73
2019-04-23T14:08:48.601Z,1003.70
2019-04-23T14:09:50.727Z,1003.70
2019-04-23T14:10:34.173Z,1003.79
2019-04-23T14:11:40.414Z,1003.81
2019-04-23T14:12:41.786Z,1003.72
2019-04-23T14:13:44.009Z,1003.66
2019-04-23T14:14:41.383Z,1003.74
2019-04-23T14:15:41.416Z,1003.89
2019-04-23T14:16:56.191Z,1003.75
2019-04-23T14:17:46.889Z,1003.72
2019-04-23T14:19:28.887Z,1003.85
2019-04-23T14:20:32.168Z,1003.72
2019-04-23T14:21:30.862Z,1003.77
2019-04-23T14:23:00.224Z,1003.85
2019-04-23T14:23:57.728Z,1003.75
2019-04-23T14:24:49.354Z,1003.68
2019-04-23T14:25:40.089Z,1003.72
2019-04-23T14:27:33.443Z,1003.78
2019-04-23T14:28:35.481Z,1003.83
2019-04-23T14:29:38.416Z,1003.84
2019-04-23T14:30:37.286Z,1003.84
2019-04-23T14:31:28.464Z,1003.94
2019-04-23T14:32:43.284Z,1003.84
2019-04-23T14:34:35.065Z,1003.88
2019-04-23T14:37:45.744Z,1003.84
2019-04-23T14:38:40.121Z,1003.88
2019-04-23T14:39:32.066Z,1003.84
2019-04-23T14:42:47.259Z,1003.95
2019-04-23T14:43:40.300Z,1003.88
2019-04-23T14:44:31.206Z,1003.94
2019-04-23T14:46:02.603Z,1003.99
2019-04-23T14:47:40.226Z,1003.91
2019-04-23T14:48:38.662Z,1003.95
2019-04-23T14:51:39.698Z,1003.89
2019-04-23T14:52:40.886Z,1003.95
2019-04-23T14:53:33.362Z,1003.94
2019-04-23T14:55:17.818Z,1003.88
2019-04-23T14:56:35.533Z,1003.94
2019-04-23T14:57:42.272Z,1003.92
2019-04-23T14:58:47.555Z,1003.88
2019-04-23T14:59:29.153Z,1003.94
2019-04-23T15:00:49.753Z,1003.99